sensor_id;sensor_type;location;lat;lon;timestamp;P1;durP1;ratioP1;P2;durP2;ratioP2
80372;SDS011;69684;48.106;11.538;2023-05-14T00:01:05;14.32;;;7.28;;
80372;SDS011;69684;48.106;11.538;2023-05-14T00:03:32;13.93;;;6.55;;
80372;SDS011;69684;48.106;11.538;2023-05-14T00:05:58;16.40;;;7.38;;
80372;SDS011;69684;48.106;11.538;2023-05-14T00:08:24;13.60;;;7.43;;
80372;SDS011;69684;48.106;11.538;2023-05-14T00:10:50;14.05;;;7.05;;
80372;SDS011;69684;48.106;11.538;2023-05-14T00:13:16;14.43;;;7.13;;
80372;SDS011;69684;48.106;11.538;2023-05-14T00:15:42;15.85;;;6.85;;
80372;SDS011;69684;48.106;11.538;2023-05-14T00:18:08;17.27;;;7.28;;
80372;SDS011;69684;48.106;11.538;2023-05-14T00:20:36;11.95;;;7.00;;
80372;SDS011;69684;48.106;11.538;2023-05-14T00:23:02;12.52;;;6.90;;
80372;SDS011;69684;48.106;11.538;2023-05-14T00:25:28;14.25;;;7.38;;
80372;SDS011;69684;48.106;11.538;2023-05-14T00:27:54;15.52;;;8.27;;
80372;SDS011;69684;48.106;11.538;2023-05-14T00:30:20;16.20;;;6.75;;
80372;SDS011;69684;48.106;11.538;2023-05-14T00:32:46;15.27;;;7.53;;
80372;SDS011;69684;48.106;11.538;2023-05-14T00:35:12;16.52;;;7.55;;
80372;SDS011;69684;48.106;11.538;2023-05-14T00:37:38;14.32;;;7.05;;
80372;SDS011;69684;48.106;11.538;2023-05-14T00:40:04;16.05;;;7.90;;
80372;SDS011;69684;48.106;11.538;2023-05-14T00:42:32;15.45;;;7.80;;
80372;SDS011;69684;48.106;11.538;2023-05-14T00:44:58;14.88;;;7.43;;
80372;SDS011;69684;48.106;11.538;2023-05-14T00:47:24;15.15;;;7.47;;
80372;SDS011;69684;48.106;11.538;2023-05-14T00:49:50;14.77;;;7.13;;
80372;SDS011;69684;48.106;11.538;2023-05-14T00:52:16;14.43;;;8.02;;
80372;SDS011;69684;48.106;11.538;2023-05-14T00:54:43;16.10;;;7.45;;
80372;SDS011;69684;48.106;11.538;2023-05-14T00:57:10;16.40;;;8.13;;
80372;SDS011;69684;48.106;11.538;2023-05-14T00:59:36;14.95;;;7.35;;
80372;SDS011;69684;48.106;11.538;2023-05-14T01:02:05;15.55;;;7.57;;
80372;SDS011;69684;48.106;11.538;2023-05-14T01:04:31;14.68;;;7.25;;
80372;SDS011;69684;48.106;11.538;2023-05-14T01:12:02;15.32;;;7.68;;
80372;SDS011;69684;48.106;11.538;2023-05-14T01:16:57;13.80;;;6.90;;
80372;SDS011;69684;48.106;11.538;2023-05-14T01:21:52;16.25;;;7.38;;
80372;SDS011;69684;48.106;11.538;2023-05-14T01:24:18;16.92;;;7.85;;
80372;SDS011;69684;48.106;11.538;2023-05-14T01:26:44;16.67;;;8.05;;
80372;SDS011;69684;48.106;11.538;2023-05-14T01:31:37;15.18;;;7.68;;
80372;SDS011;69684;48.106;11.538;2023-05-14T01:34:03;17.73;;;7.80;;
80372;SDS011;69684;48.106;11.538;2023-05-14T01:36:30;14.00;;;6.82;;
80372;SDS011;69684;48.106;11.538;2023-05-14T01:38:57;14.77;;;6.93;;
80372;SDS011;69684;48.106;11.538;2023-05-14T01:41:24;18.42;;;7.57;;
80372;SDS011;69684;48.106;11.538;2023-05-14T01:43:51;15.73;;;7.47;;
80372;SDS011;69684;48.106;11.538;2023-05-14T01:46:18;16.83;;;7.93;;
80372;SDS011;69684;48.106;11.538;2023-05-14T01:48:44;18.25;;;8.30;;
80372;SDS011;69684;48.106;11.538;2023-05-14T01:51:09;15.65;;;7.47;;
80372;SDS011;69684;48.106;11.538;2023-05-14T01:53:38;18.10;;;7.35;;
80372;SDS011;69684;48.106;11.538;2023-05-14T01:56:04;15.52;;;7.47;;
80372;SDS011;69684;48.106;11.538;2023-05-14T01:58:30;16.55;;;8.20;;
80372;SDS011;69684;48.106;11.538;2023-05-14T02:00:56;17.40;;;7.53;;
80372;SDS011;69684;48.106;11.538;2023-05-14T02:03:22;14.40;;;6.72;;
80372;SDS011;69684;48.106;11.538;2023-05-14T02:05:48;14.43;;;7.43;;
80372;SDS011;69684;48.106;11.538;2023-05-14T02:08:14;14.45;;;7.20;;
80372;SDS011;69684;48.106;11.538;2023-05-14T02:10:40;15.40;;;7.93;;
80372;SDS011;69684;48.106;11.538;2023-05-14T02:13:06;14.30;;;7.20;;
80372;SDS011;69684;48.106;11.538;2023-05-14T02:15:33;16.67;;;7.15;;
80372;SDS011;69684;48.106;11.538;2023-05-14T02:17:59;15.82;;;7.25;;
80372;SDS011;69684;48.106;11.538;2023-05-14T02:20:25;17.65;;;7.80;;
80372;SDS011;69684;48.106;11.538;2023-05-14T02:22:51;17.90;;;7.60;;
80372;SDS011;69684;48.106;11.538;2023-05-14T02:25:17;17.98;;;7.50;;
80372;SDS011;69684;48.106;11.538;2023-05-14T02:27:43;14.52;;;6.97;;
80372;SDS011;69684;48.106;11.538;2023-05-14T02:30:09;16.45;;;7.68;;
80372;SDS011;69684;48.106;11.538;2023-05-14T02:32:36;17.05;;;7.68;;
80372;SDS011;69684;48.106;11.538;2023-05-14T02:35:02;17.15;;;7.82;;
80372;SDS011;69684;48.106;11.538;2023-05-14T02:37:28;20.02;;;8.00;;
80372;SDS011;69684;48.106;11.538;2023-05-14T02:39:54;18.02;;;8.20;;
80372;SDS011;69684;48.106;11.538;2023-05-14T02:42:20;18.50;;;8.27;;
80372;SDS011;69684;48.106;11.538;2023-05-14T02:44:46;19.38;;;8.48;;
80372;SDS011;69684;48.106;11.538;2023-05-14T02:47:12;21.15;;;8.10;;
80372;SDS011;69684;48.106;11.538;2023-05-14T02:49:38;23.17;;;9.10;;
80372;SDS011;69684;48.106;11.538;2023-05-14T02:52:04;20.05;;;9.13;;
80372;SDS011;69684;48.106;11.538;2023-05-14T02:54:30;19.23;;;9.10;;
80372;SDS011;69684;48.106;11.538;2023-05-14T02:56:56;21.70;;;8.40;;
80372;SDS011;69684;48.106;11.538;2023-05-14T02:59:23;19.92;;;8.52;;
80372;SDS011;69684;48.106;11.538;2023-05-14T03:01:49;21.10;;;8.32;;
80372;SDS011;69684;48.106;11.538;2023-05-14T03:04:15;19.95;;;8.80;;
80372;SDS011;69684;48.106;11.538;2023-05-14T03:06:41;17.40;;;8.77;;
80372;SDS011;69684;48.106;11.538;2023-05-14T03:09:07;20.70;;;9.25;;
80372;SDS011;69684;48.106;11.538;2023-05-14T03:11:33;19.40;;;8.48;;
80372;SDS011;69684;48.106;11.538;2023-05-14T03:13:59;22.10;;;8.73;;
80372;SDS011;69684;48.106;11.538;2023-05-14T03:16:25;20.88;;;8.68;;
80372;SDS011;69684;48.106;11.538;2023-05-14T03:18:51;18.25;;;7.78;;
80372;SDS011;69684;48.106;11.538;2023-05-14T03:21:17;18.33;;;8.52;;
80372;SDS011;69684;48.106;11.538;2023-05-14T03:23:43;17.92;;;7.85;;
80372;SDS011;69684;48.106;11.538;2023-05-14T03:26:09;19.80;;;7.90;;
80372;SDS011;69684;48.106;11.538;2023-05-14T03:28:35;18.27;;;8.13;;
80372;SDS011;69684;48.106;11.538;2023-05-14T03:31:01;16.73;;;7.22;;
80372;SDS011;69684;48.106;11.538;2023-05-14T03:33:27;20.33;;;8.55;;
80372;SDS011;69684;48.106;11.538;2023-05-14T03:35:53;17.67;;;8.05;;
80372;SDS011;69684;48.106;11.538;2023-05-14T03:38:19;17.52;;;7.85;;
80372;SDS011;69684;48.106;11.538;2023-05-14T03:40:45;16.55;;;7.43;;
80372;SDS011;69684;48.106;11.538;2023-05-14T03:43:11;15.23;;;8.23;;
80372;SDS011;69684;48.106;11.538;2023-05-14T03:45:37;17.77;;;8.57;;
80372;SDS011;69684;48.106;11.538;2023-05-14T03:48:03;20.45;;;8.63;;
80372;SDS011;69684;48.106;11.538;2023-05-14T03:50:30;21.50;;;9.15;;
80372;SDS011;69684;48.106;11.538;2023-05-14T03:52:56;19.88;;;8.55;;
80372;SDS011;69684;48.106;11.538;2023-05-14T03:55:22;16.25;;;7.15;;
80372;SDS011;69684;48.106;11.538;2023-05-14T03:57:48;20.80;;;8.20;;
80372;SDS011;69684;48.106;11.538;2023-05-14T04:00:14;20.50;;;8.65;;
80372;SDS011;69684;48.106;11.538;2023-05-14T04:02:41;18.98;;;8.13;;
80372;SDS011;69684;48.106;11.538;2023-05-14T04:05:07;15.35;;;7.07;;
80372;SDS011;69684;48.106;11.538;2023-05-14T04:07:33;21.25;;;9.60;;
80372;SDS011;69684;48.106;11.538;2023-05-14T04:09:59;18.00;;;7.80;;
80372;SDS011;69684;48.106;11.538;2023-05-14T04:12:25;18.38;;;8.02;;
80372;SDS011;69684;48.106;11.538;2023-05-14T04:14:51;16.08;;;7.72;;
80372;SDS011;69684;48.106;11.538;2023-05-14T04:17:17;17.42;;;7.55;;
80372;SDS011;69684;48.106;11.538;2023-05-14T04:19:43;19.50;;;7.70;;
80372;SDS011;69684;48.106;11.538;2023-05-14T04:22:09;18.20;;;7.75;;
80372;SDS011;69684;48.106;11.538;2023-05-14T04:24:35;19.02;;;8.00;;
80372;SDS011;69684;48.106;11.538;2023-05-14T04:27:01;18.77;;;8.60;;
80372;SDS011;69684;48.106;11.538;2023-05-14T04:29:27;16.52;;;8.40;;
80372;SDS011;69684;48.106;11.538;2023-05-14T04:31:53;17.30;;;7.35;;
80372;SDS011;69684;48.106;11.538;2023-05-14T04:34:19;17.13;;;7.72;;
80372;SDS011;69684;48.106;11.538;2023-05-14T04:36:45;17.20;;;8.02;;
80372;SDS011;69684;48.106;11.538;2023-05-14T04:39:11;18.65;;;6.75;;
80372;SDS011;69684;48.106;11.538;2023-05-14T04:41:37;13.80;;;6.43;;
80372;SDS011;69684;48.106;11.538;2023-05-14T04:44:03;16.00;;;7.13;;
80372;SDS011;69684;48.106;11.538;2023-05-14T04:46:29;14.80;;;7.00;;
80372;SDS011;69684;48.106;11.538;2023-05-14T04:48:55;17.55;;;7.70;;
80372;SDS011;69684;48.106;11.538;2023-05-14T04:51:22;18.33;;;7.25;;
80372;SDS011;69684;48.106;11.538;2023-05-14T04:53:48;14.75;;;6.70;;
80372;SDS011;69684;48.106;11.538;2023-05-14T04:56:14;14.43;;;7.35;;
80372;SDS011;69684;48.106;11.538;2023-05-14T04:58:40;16.70;;;7.18;;
80372;SDS011;69684;48.106;11.538;2023-05-14T05:01:06;18.85;;;8.02;;
80372;SDS011;69684;48.106;11.538;2023-05-14T05:03:32;17.40;;;8.25;;
80372;SDS011;69684;48.106;11.538;2023-05-14T05:05:58;18.45;;;7.93;;
80372;SDS011;69684;48.106;11.538;2023-05-14T05:08:25;17.70;;;7.80;;
80372;SDS011;69684;48.106;11.538;2023-05-14T05:10:51;15.43;;;7.45;;
80372;SDS011;69684;48.106;11.538;2023-05-14T05:13:17;19.30;;;8.23;;
80372;SDS011;69684;48.106;11.538;2023-05-14T05:15:43;21.40;;;8.57;;
80372;SDS011;69684;48.106;11.538;2023-05-14T05:18:09;20.48;;;8.75;;
80372;SDS011;69684;48.106;11.538;2023-05-14T05:20:35;16.90;;;7.60;;
80372;SDS011;69684;48.106;11.538;2023-05-14T05:23:01;20.60;;;8.35;;
80372;SDS011;69684;48.106;11.538;2023-05-14T05:25:27;23.05;;;8.55;;
80372;SDS011;69684;48.106;11.538;2023-05-14T05:27:53;16.48;;;8.15;;
80372;SDS011;69684;48.106;11.538;2023-05-14T05:30:19;18.98;;;7.75;;
80372;SDS011;69684;48.106;11.538;2023-05-14T05:32:45;16.95;;;7.75;;
80372;SDS011;69684;48.106;11.538;2023-05-14T05:35:11;18.42;;;8.07;;
80372;SDS011;69684;48.106;11.538;2023-05-14T05:37:37;16.27;;;7.30;;
80372;SDS011;69684;48.106;11.538;2023-05-14T05:40:03;20.30;;;8.48;;
80372;SDS011;69684;48.106;11.538;2023-05-14T05:42:30;20.90;;;8.25;;
80372;SDS011;69684;48.106;11.538;2023-05-14T05:44:56;20.05;;;8.68;;
80372;SDS011;69684;48.106;11.538;2023-05-14T05:47:22;21.60;;;8.02;;
80372;SDS011;69684;48.106;11.538;2023-05-14T05:49:48;21.08;;;9.18;;
80372;SDS011;69684;48.106;11.538;2023-05-14T05:52:14;20.10;;;8.40;;
80372;SDS011;69684;48.106;11.538;2023-05-14T05:54:40;19.55;;;8.00;;
80372;SDS011;69684;48.106;11.538;2023-05-14T05:57:06;17.80;;;7.80;;
80372;SDS011;69684;48.106;11.538;2023-05-14T05:59:32;19.50;;;7.20;;
80372;SDS011;69684;48.106;11.538;2023-05-14T06:01:58;23.63;;;9.02;;
80372;SDS011;69684;48.106;11.538;2023-05-14T06:04:24;20.33;;;9.27;;
80372;SDS011;69684;48.106;11.538;2023-05-14T06:06:50;20.13;;;8.38;;
80372;SDS011;69684;48.106;11.538;2023-05-14T06:09:16;20.48;;;8.80;;
80372;SDS011;69684;48.106;11.538;2023-05-14T06:11:42;22.77;;;10.05;;
80372;SDS011;69684;48.106;11.538;2023-05-14T06:14:08;19.58;;;7.78;;
80372;SDS011;69684;48.106;11.538;2023-05-14T06:16:34;18.38;;;8.02;;
80372;SDS011;69684;48.106;11.538;2023-05-14T06:19:00;17.92;;;8.88;;
80372;SDS011;69684;48.106;11.538;2023-05-14T06:21:26;17.92;;;7.82;;
80372;SDS011;69684;48.106;11.538;2023-05-14T06:23:52;16.88;;;8.23;;
80372;SDS011;69684;48.106;11.538;2023-05-14T06:26:18;18.50;;;7.70;;
80372;SDS011;69684;48.106;11.538;2023-05-14T06:28:44;15.57;;;7.10;;
80372;SDS011;69684;48.106;11.538;2023-05-14T06:31:10;15.60;;;8.05;;
80372;SDS011;69684;48.106;11.538;2023-05-14T06:33:37;14.82;;;7.63;;
80372;SDS011;69684;48.106;11.538;2023-05-14T06:36:04;17.90;;;7.63;;
80372;SDS011;69684;48.106;11.538;2023-05-14T06:38:30;18.25;;;7.55;;
80372;SDS011;69684;48.106;11.538;2023-05-14T06:40:56;17.52;;;8.93;;
80372;SDS011;69684;48.106;11.538;2023-05-14T06:43:22;14.50;;;7.45;;
80372;SDS011;69684;48.106;11.538;2023-05-14T06:45:51;17.35;;;7.95;;
80372;SDS011;69684;48.106;11.538;2023-05-14T06:48:18;14.82;;;7.93;;
80372;SDS011;69684;48.106;11.538;2023-05-14T06:50:44;17.23;;;8.07;;
80372;SDS011;69684;48.106;11.538;2023-05-14T06:53:10;16.98;;;7.57;;
80372;SDS011;69684;48.106;11.538;2023-05-14T06:55:36;15.00;;;7.05;;
80372;SDS011;69684;48.106;11.538;2023-05-14T06:58:04;14.40;;;7.07;;
80372;SDS011;69684;48.106;11.538;2023-05-14T07:00:30;17.33;;;7.85;;
80372;SDS011;69684;48.106;11.538;2023-05-14T07:02:56;15.25;;;7.55;;
80372;SDS011;69684;48.106;11.538;2023-05-14T07:05:23;18.35;;;7.90;;
80372;SDS011;69684;48.106;11.538;2023-05-14T07:07:49;14.25;;;7.60;;
80372;SDS011;69684;48.106;11.538;2023-05-14T07:10:15;15.48;;;7.65;;
80372;SDS011;69684;48.106;11.538;2023-05-14T07:12:41;12.30;;;6.28;;
80372;SDS011;69684;48.106;11.538;2023-05-14T07:15:08;15.57;;;7.25;;
80372;SDS011;69684;48.106;11.538;2023-05-14T07:17:34;14.85;;;8.43;;
80372;SDS011;69684;48.106;11.538;2023-05-14T07:20:00;13.95;;;7.47;;
80372;SDS011;69684;48.106;11.538;2023-05-14T07:22:26;14.32;;;7.13;;
80372;SDS011;69684;48.106;11.538;2023-05-14T07:24:52;15.70;;;7.38;;
80372;SDS011;69684;48.106;11.538;2023-05-14T07:27:18;16.38;;;7.70;;
80372;SDS011;69684;48.106;11.538;2023-05-14T07:29:44;15.18;;;7.50;;
80372;SDS011;69684;48.106;11.538;2023-05-14T07:32:10;12.77;;;7.28;;
80372;SDS011;69684;48.106;11.538;2023-05-14T07:34:36;12.57;;;7.10;;
80372;SDS011;69684;48.106;11.538;2023-05-14T07:37:02;12.80;;;7.43;;
80372;SDS011;69684;48.106;11.538;2023-05-14T07:39:28;15.18;;;6.65;;
80372;SDS011;69684;48.106;11.538;2023-05-14T07:41:54;13.05;;;7.60;;
80372;SDS011;69684;48.106;11.538;2023-05-14T07:44:20;11.88;;;7.38;;
80372;SDS011;69684;48.106;11.538;2023-05-14T07:46:46;13.63;;;6.85;;
80372;SDS011;69684;48.106;11.538;2023-05-14T07:49:12;13.40;;;7.35;;
80372;SDS011;69684;48.106;11.538;2023-05-14T07:51:38;13.40;;;7.57;;
80372;SDS011;69684;48.106;11.538;2023-05-14T07:54:05;15.68;;;8.55;;
80372;SDS011;69684;48.106;11.538;2023-05-14T07:56:31;13.50;;;7.88;;
80372;SDS011;69684;48.106;11.538;2023-05-14T07:58:57;13.25;;;7.47;;
80372;SDS011;69684;48.106;11.538;2023-05-14T08:01:23;12.57;;;7.25;;
80372;SDS011;69684;48.106;11.538;2023-05-14T08:03:49;14.25;;;7.60;;
80372;SDS011;69684;48.106;11.538;2023-05-14T08:06:15;12.98;;;6.90;;
80372;SDS011;69684;48.106;11.538;2023-05-14T08:08:41;11.60;;;6.82;;
80372;SDS011;69684;48.106;11.538;2023-05-14T08:11:07;10.40;;;6.07;;
80372;SDS011;69684;48.106;11.538;2023-05-14T08:13:33;12.32;;;7.38;;
80372;SDS011;69684;48.106;11.538;2023-05-14T08:15:59;13.18;;;7.72;;
80372;SDS011;69684;48.106;11.538;2023-05-14T08:18:25;12.25;;;6.10;;
80372;SDS011;69684;48.106;11.538;2023-05-14T08:20:53;12.95;;;6.65;;
80372;SDS011;69684;48.106;11.538;2023-05-14T08:23:33;14.35;;;7.25;;
80372;SDS011;69684;48.106;11.538;2023-05-14T08:26:02;11.65;;;6.60;;
80372;SDS011;69684;48.106;11.538;2023-05-14T08:28:40;16.33;;;7.38;;
80372;SDS011;69684;48.106;11.538;2023-05-14T08:34:14;12.55;;;6.45;;
80372;SDS011;69684;48.106;11.538;2023-05-14T08:37:00;14.90;;;6.50;;
80372;SDS011;69684;48.106;11.538;2023-05-14T08:42:04;12.43;;;6.72;;
80372;SDS011;69684;48.106;11.538;2023-05-14T08:44:59;12.02;;;5.65;;
80372;SDS011;69684;48.106;11.538;2023-05-14T08:50:28;11.50;;;6.10;;
80372;SDS011;69684;48.106;11.538;2023-05-14T08:55:48;9.70;;;6.25;;
80372;SDS011;69684;48.106;11.538;2023-05-14T08:58:59;12.43;;;6.25;;
80372;SDS011;69684;48.106;11.538;2023-05-14T09:01:36;11.88;;;5.93;;
80372;SDS011;69684;48.106;11.538;2023-05-14T09:04:14;10.88;;;5.88;;
80372;SDS011;69684;48.106;11.538;2023-05-14T09:06:51;10.63;;;6.20;;
80372;SDS011;69684;48.106;11.538;2023-05-14T09:09:24;11.50;;;6.70;;
80372;SDS011;69684;48.106;11.538;2023-05-14T09:11:54;13.50;;;6.32;;
80372;SDS011;69684;48.106;11.538;2023-05-14T09:14:42;11.02;;;6.20;;
80372;SDS011;69684;48.106;11.538;2023-05-14T09:17:10;11.38;;;5.47;;
80372;SDS011;69684;48.106;11.538;2023-05-14T09:19:40;12.20;;;6.25;;
80372;SDS011;69684;48.106;11.538;2023-05-14T09:22:31;10.98;;;6.10;;
80372;SDS011;69684;48.106;11.538;2023-05-14T09:25:33;13.20;;;6.75;;
80372;SDS011;69684;48.106;11.538;2023-05-14T09:28:04;10.75;;;6.28;;
80372;SDS011;69684;48.106;11.538;2023-05-14T09:30:34;12.52;;;6.72;;
80372;SDS011;69684;48.106;11.538;2023-05-14T09:33:03;9.95;;;5.55;;
80372;SDS011;69684;48.106;11.538;2023-05-14T09:35:32;12.52;;;5.85;;
80372;SDS011;69684;48.106;11.538;2023-05-14T09:38:13;12.18;;;6.18;;
80372;SDS011;69684;48.106;11.538;2023-05-14T09:41:19;11.82;;;5.40;;
80372;SDS011;69684;48.106;11.538;2023-05-14T09:46:46;10.40;;;5.35;;
80372;SDS011;69684;48.106;11.538;2023-05-14T09:49:17;7.68;;;5.47;;
80372;SDS011;69684;48.106;11.538;2023-05-14T09:51:46;10.82;;;5.65;;
80372;SDS011;69684;48.106;11.538;2023-05-14T09:54:23;10.52;;;5.60;;
80372;SDS011;69684;48.106;11.538;2023-05-14T09:57:01;9.93;;;5.57;;
80372;SDS011;69684;48.106;11.538;2023-05-14T09:59:34;8.35;;;4.97;;
80372;SDS011;69684;48.106;11.538;2023-05-14T10:04:52;9.93;;;5.22;;
80372;SDS011;69684;48.106;11.538;2023-05-14T10:10:15;8.93;;;5.90;;
80372;SDS011;69684;48.106;11.538;2023-05-14T10:12:56;8.25;;;5.15;;
80372;SDS011;69684;48.106;11.538;2023-05-14T10:15:38;10.35;;;5.68;;
80372;SDS011;69684;48.106;11.538;2023-05-14T10:18:13;8.90;;;4.90;;
80372;SDS011;69684;48.106;11.538;2023-05-14T10:21:03;8.93;;;5.43;;
80372;SDS011;69684;48.106;11.538;2023-05-14T10:23:32;7.97;;;4.43;;
80372;SDS011;69684;48.106;11.538;2023-05-14T10:26:01;9.63;;;5.05;;
80372;SDS011;69684;48.106;11.538;2023-05-14T10:28:30;8.00;;;4.57;;
80372;SDS011;69684;48.106;11.538;2023-05-14T10:31:04;9.63;;;5.03;;
80372;SDS011;69684;48.106;11.538;2023-05-14T10:33:32;8.95;;;4.93;;
80372;SDS011;69684;48.106;11.538;2023-05-14T10:36:13;7.43;;;4.82;;
80372;SDS011;69684;48.106;11.538;2023-05-14T10:38:39;7.28;;;4.57;;
80372;SDS011;69684;48.106;11.538;2023-05-14T10:41:13;8.85;;;5.00;;
80372;SDS011;69684;48.106;11.538;2023-05-14T10:46:08;7.22;;;4.30;;
80372;SDS011;69684;48.106;11.538;2023-05-14T10:48:35;8.10;;;4.72;;
80372;SDS011;69684;48.106;11.538;2023-05-14T10:51:01;7.53;;;4.72;;
80372;SDS011;69684;48.106;11.538;2023-05-14T10:53:34;8.45;;;5.30;;
80372;SDS011;69684;48.106;11.538;2023-05-14T10:56:11;7.07;;;4.40;;
80372;SDS011;69684;48.106;11.538;2023-05-14T10:58:38;7.20;;;4.10;;
80372;SDS011;69684;48.106;11.538;2023-05-14T11:01:04;6.95;;;4.03;;
80372;SDS011;69684;48.106;11.538;2023-05-14T11:03:31;8.57;;;5.10;;
80372;SDS011;69684;48.106;11.538;2023-05-14T11:05:58;7.65;;;4.35;;
80372;SDS011;69684;48.106;11.538;2023-05-14T11:08:25;9.38;;;4.93;;
80372;SDS011;69684;48.106;11.538;2023-05-14T11:10:53;7.90;;;4.70;;
80372;SDS011;69684;48.106;11.538;2023-05-14T11:13:19;8.10;;;5.43;;
80372;SDS011;69684;48.106;11.538;2023-05-14T11:15:45;8.15;;;4.53;;
80372;SDS011;69684;48.106;11.538;2023-05-14T11:18:13;8.43;;;4.93;;
80372;SDS011;69684;48.106;11.538;2023-05-14T11:20:39;7.47;;;4.40;;
80372;SDS011;69684;48.106;11.538;2023-05-14T11:23:05;7.05;;;4.43;;
80372;SDS011;69684;48.106;11.538;2023-05-14T11:25:31;8.27;;;4.75;;
80372;SDS011;69684;48.106;11.538;2023-05-14T11:27:57;6.18;;;4.40;;
80372;SDS011;69684;48.106;11.538;2023-05-14T11:30:24;7.65;;;4.88;;
80372;SDS011;69684;48.106;11.538;2023-05-14T11:32:50;6.30;;;3.80;;
80372;SDS011;69684;48.106;11.538;2023-05-14T11:35:18;7.18;;;4.97;;
80372;SDS011;69684;48.106;11.538;2023-05-14T11:37:50;4.68;;;3.72;;
80372;SDS011;69684;48.106;11.538;2023-05-14T11:40:16;5.85;;;3.50;;
80372;SDS011;69684;48.106;11.538;2023-05-14T11:42:42;5.95;;;4.18;;
80372;SDS011;69684;48.106;11.538;2023-05-14T11:45:12;7.93;;;4.28;;
80372;SDS011;69684;48.106;11.538;2023-05-14T11:47:39;6.35;;;3.95;;
80372;SDS011;69684;48.106;11.538;2023-05-14T11:50:06;8.40;;;4.85;;
80372;SDS011;69684;48.106;11.538;2023-05-14T11:52:36;6.38;;;3.95;;
80372;SDS011;69684;48.106;11.538;2023-05-14T11:55:02;6.53;;;4.15;;
80372;SDS011;69684;48.106;11.538;2023-05-14T11:57:31;6.90;;;3.67;;
80372;SDS011;69684;48.106;11.538;2023-05-14T11:59:57;7.35;;;4.05;;
80372;SDS011;69684;48.106;11.538;2023-05-14T12:02:23;6.20;;;4.45;;
80372;SDS011;69684;48.106;11.538;2023-05-14T12:04:54;5.15;;;4.20;;
80372;SDS011;69684;48.106;11.538;2023-05-14T12:07:20;6.60;;;4.72;;
80372;SDS011;69684;48.106;11.538;2023-05-14T12:09:47;7.05;;;5.43;;
80372;SDS011;69684;48.106;11.538;2023-05-14T12:12:14;5.00;;;4.45;;
80372;SDS011;69684;48.106;11.538;2023-05-14T12:14:42;6.63;;;4.60;;
80372;SDS011;69684;48.106;11.538;2023-05-14T12:17:19;5.72;;;4.75;;
80372;SDS011;69684;48.106;11.538;2023-05-14T12:22:12;5.47;;;4.80;;
80372;SDS011;69684;48.106;11.538;2023-05-14T12:24:39;7.03;;;5.10;;
80372;SDS011;69684;48.106;11.538;2023-05-14T12:27:05;5.45;;;4.78;;
80372;SDS011;69684;48.106;11.538;2023-05-14T12:29:34;5.53;;;4.68;;
80372;SDS011;69684;48.106;11.538;2023-05-14T12:32:01;4.70;;;3.95;;
80372;SDS011;69684;48.106;11.538;2023-05-14T12:34:32;5.45;;;4.07;;
80372;SDS011;69684;48.106;11.538;2023-05-14T12:36:58;5.85;;;4.25;;
80372;SDS011;69684;48.106;11.538;2023-05-14T12:39:24;4.80;;;4.22;;
80372;SDS011;69684;48.106;11.538;2023-05-14T12:41:50;5.07;;;4.18;;
80372;SDS011;69684;48.106;11.538;2023-05-14T12:44:16;5.75;;;4.30;;
80372;SDS011;69684;48.106;11.538;2023-05-14T12:46:42;5.30;;;4.28;;
80372;SDS011;69684;48.106;11.538;2023-05-14T12:49:08;4.60;;;3.78;;
80372;SDS011;69684;48.106;11.538;2023-05-14T12:51:35;4.05;;;3.10;;
80372;SDS011;69684;48.106;11.538;2023-05-14T12:54:01;5.45;;;3.40;;
80372;SDS011;69684;48.106;11.538;2023-05-14T12:56:27;5.95;;;3.88;;
80372;SDS011;69684;48.106;11.538;2023-05-14T12:58:54;6.72;;;4.63;;
80372;SDS011;69684;48.106;11.538;2023-05-14T13:01:21;5.55;;;4.03;;
80372;SDS011;69684;48.106;11.538;2023-05-14T13:03:47;4.90;;;3.72;;
80372;SDS011;69684;48.106;11.538;2023-05-14T13:06:15;5.13;;;3.42;;
80372;SDS011;69684;48.106;11.538;2023-05-14T13:08:42;4.40;;;3.85;;
80372;SDS011;69684;48.106;11.538;2023-05-14T13:11:08;5.32;;;4.45;;
80372;SDS011;69684;48.106;11.538;2023-05-14T13:13:36;5.05;;;3.53;;
80372;SDS011;69684;48.106;11.538;2023-05-14T13:16:02;5.18;;;3.40;;
80372;SDS011;69684;48.106;11.538;2023-05-14T13:18:28;5.05;;;4.07;;
80372;SDS011;69684;48.106;11.538;2023-05-14T13:20:54;5.97;;;4.30;;
80372;SDS011;69684;48.106;11.538;2023-05-14T13:23:20;6.15;;;4.28;;
80372;SDS011;69684;48.106;11.538;2023-05-14T13:25:46;5.38;;;3.83;;
80372;SDS011;69684;48.106;11.538;2023-05-14T13:28:12;5.13;;;4.13;;
80372;SDS011;69684;48.106;11.538;2023-05-14T13:30:38;6.18;;;3.95;;
80372;SDS011;69684;48.106;11.538;2023-05-14T13:33:04;4.85;;;3.72;;
80372;SDS011;69684;48.106;11.538;2023-05-14T13:35:30;5.13;;;3.75;;
80372;SDS011;69684;48.106;11.538;2023-05-14T13:37:56;5.68;;;4.22;;
80372;SDS011;69684;48.106;11.538;2023-05-14T13:40:22;5.85;;;4.20;;
80372;SDS011;69684;48.106;11.538;2023-05-14T13:42:48;4.95;;;3.85;;
80372;SDS011;69684;48.106;11.538;2023-05-14T13:45:14;5.63;;;4.10;;
80372;SDS011;69684;48.106;11.538;2023-05-14T13:47:40;4.68;;;4.20;;
80372;SDS011;69684;48.106;11.538;2023-05-14T13:50:06;3.65;;;2.90;;
80372;SDS011;69684;48.106;11.538;2023-05-14T13:52:32;3.88;;;2.90;;
80372;SDS011;69684;48.106;11.538;2023-05-14T13:54:58;4.07;;;3.10;;
80372;SDS011;69684;48.106;11.538;2023-05-14T13:57:24;4.07;;;2.45;;
80372;SDS011;69684;48.106;11.538;2023-05-14T13:59:50;3.42;;;3.00;;
80372;SDS011;69684;48.106;11.538;2023-05-14T14:02:16;3.63;;;2.47;;
80372;SDS011;69684;48.106;11.538;2023-05-14T14:04:42;3.05;;;2.70;;
80372;SDS011;69684;48.106;11.538;2023-05-14T14:07:08;4.07;;;3.10;;
80372;SDS011;69684;48.106;11.538;2023-05-14T14:09:34;4.55;;;3.00;;
80372;SDS011;69684;48.106;11.538;2023-05-14T14:12:03;4.22;;;3.00;;
80372;SDS011;69684;48.106;11.538;2023-05-14T14:14:30;2.65;;;2.33;;
80372;SDS011;69684;48.106;11.538;2023-05-14T14:16:56;2.67;;;2.47;;
80372;SDS011;69684;48.106;11.538;2023-05-14T14:19:22;3.25;;;2.42;;
80372;SDS011;69684;48.106;11.538;2023-05-14T14:21:48;3.65;;;3.08;;
80372;SDS011;69684;48.106;11.538;2023-05-14T14:24:13;4.55;;;2.97;;
80372;SDS011;69684;48.106;11.538;2023-05-14T14:26:39;4.78;;;2.78;;
80372;SDS011;69684;48.106;11.538;2023-05-14T14:29:05;3.05;;;2.45;;
80372;SDS011;69684;48.106;11.538;2023-05-14T14:31:31;4.50;;;3.47;;
80372;SDS011;69684;48.106;11.538;2023-05-14T14:33:57;3.50;;;3.20;;
80372;SDS011;69684;48.106;11.538;2023-05-14T14:36:23;4.53;;;4.15;;
80372;SDS011;69684;48.106;11.538;2023-05-14T14:38:49;4.15;;;3.83;;
80372;SDS011;69684;48.106;11.538;2023-05-14T14:41:15;4.72;;;4.32;;
80372;SDS011;69684;48.106;11.538;2023-05-14T14:43:41;4.72;;;4.32;;
80372;SDS011;69684;48.106;11.538;2023-05-14T14:46:07;4.75;;;4.45;;
80372;SDS011;69684;48.106;11.538;2023-05-14T14:48:34;6.07;;;5.72;;
80372;SDS011;69684;48.106;11.538;2023-05-14T14:53:29;6.43;;;4.68;;
80372;SDS011;69684;48.106;11.538;2023-05-14T14:55:56;6.20;;;5.80;;
80372;SDS011;69684;48.106;11.538;2023-05-14T14:58:22;4.82;;;4.60;;
80372;SDS011;69684;48.106;11.538;2023-05-14T15:00:54;3.10;;;2.90;;
80372;SDS011;69684;48.106;11.538;2023-05-14T15:03:21;2.90;;;2.70;;
80372;SDS011;69684;48.106;11.538;2023-05-14T15:05:47;3.60;;;3.30;;
80372;SDS011;69684;48.106;11.538;2023-05-14T15:08:13;3.13;;;2.83;;